Time;durP1;ratioP1;P1;durP2;ratioP2;P2;SDS_P1;SDS_P2;PMS_P1;PMS_P2;Temp;Humidity;BMP_temperature;BMP_pressure;BME280_temperature;BME280_humidity;BME280_pressure;Samples;Min_cycle;Max_cycle;Signal;HPM_P1;HPM_P2
2023/08/17 00:02:06;;;;;;;7.77;7.07;;;21.10;93.20;;;20.99;81.92;98009.50;4954153;28;20558;-70
2023/08/17 00:04:33;;;;;;;7.47;6.83;;;21.10;93.10;;;21.03;82.14;98013.34;4942780;28;20469;-70
2023/08/17 00:07:00;;;;;;;7.40;6.80;;;21.10;93.10;;;21.14;81.50;98016.84;4935591;29;20468;-70
2023/08/17 00:09:28;;;;;;;7.80;7.10;;;21.10;93.00;;;20.98;82.14;98014.19;4935454;29;20462;-71
2023/08/17 00:11:56;;;;;;;11.43;7.43;;;21.10;93.00;;;21.03;81.81;98011.41;4941062;28;20509;-69
2023/08/17 00:14:23;;;;;;;8.00;7.27;;;21.10;93.00;;;21.14;81.53;98025.91;4941734;29;21339;-71
2023/08/17 00:16:51;;;;;;;7.67;7.00;;;21.10;93.00;;;21.15;81.66;98023.97;4950739;28;20462;-70
2023/08/17 00:19:18;;;;;;;7.77;7.07;;;21.10;93.00;;;21.20;81.17;98018.44;4948228;29;20458;-70
2023/08/17 00:21:46;;;;;;;8.03;7.23;;;21.10;93.00;;;21.20;81.12;98019.28;4948828;28;20524;-69
2023/08/17 00:24:14;;;;;;;8.07;7.40;;;21.20;93.00;;;21.23;81.06;98015.94;4957705;28;20452;-70
2023/08/17 00:26:41;;;;;;;9.23;7.03;;;21.20;92.90;;;21.25;80.86;98018.44;4950591;29;20510;-70
2023/08/17 00:29:09;;;;;;;8.00;7.23;;;21.20;92.90;;;21.22;80.94;98033.53;4939457;29;20453;-70
2023/08/17 00:31:36;;;;;;;8.73;6.90;;;21.20;92.90;;;21.16;81.30;98029.19;4952762;28;20501;-70
2023/08/17 00:34:04;;;;;;;7.80;7.20;;;21.20;93.00;;;21.19;80.98;98033.28;4963056;28;20878;-71
2023/08/17 00:36:31;;;;;;;8.10;7.40;;;21.10;92.90;;;21.18;81.15;98032.47;4957078;28;20454;-71
2023/08/17 00:38:58;;;;;;;8.40;7.60;;;21.20;93.00;;;21.20;81.09;98030.25;4950371;29;20451;-70
2023/08/17 00:41:25;;;;;;;7.90;7.17;;;21.20;93.00;;;20.88;81.31;97982.16;4933752;29;20451;-70
2023/08/17 00:43:53;;;;;;;8.20;7.47;;;21.20;93.00;;;21.19;81.99;98036.03;4942812;29;20456;-70
2023/08/17 00:46:22;;;;;;;7.93;7.23;;;21.20;93.20;;;21.16;81.74;98026.47;4934783;28;20463;-71
2023/08/17 00:48:50;;;;;;;8.37;7.67;;;21.20;93.20;;;21.13;81.78;98042.69;4936193;29;20450;-69
2023/08/17 00:51:20;;;;;;;8.27;7.40;;;21.10;93.20;;;21.17;82.13;98061.06;4945099;28;20451;-69
2023/08/17 00:53:47;;;;;;;8.60;7.90;;;21.10;93.50;;;21.20;82.07;98059.66;4934760;29;20545;-70
2023/08/17 00:56:14;;;;;;;9.00;8.10;;;21.10;93.60;;;21.01;82.19;98062.25;4934475;29;20456;-69
2023/08/17 00:58:42;;;;;;;8.57;7.87;;;21.00;93.40;;;21.07;82.10;98066.59;4934083;29;20837;-70
2023/08/17 01:01:10;;;;;;;9.40;7.67;;;21.00;93.70;;;20.81;83.76;98074.97;4933522;29;20462;-71
2023/08/17 01:03:41;;;;;;;9.67;7.63;;;20.90;93.80;;;20.73;84.61;98073.59;4933997;29;21069;-71
2023/08/17 01:06:09;;;;;;;8.73;8.00;;;20.80;94.20;;;20.73;85.20;98075.53;4934295;29;20557;-70
2023/08/17 01:08:37;;;;;;;8.83;7.73;;;20.80;94.60;;;20.63;85.93;98079.16;4944024;29;20459;-71
2023/08/17 01:11:21;;;;;;;9.53;8.53;;;20.70;94.90;;;20.56;86.32;98073.94;4937116;29;20608;-70
2023/08/17 01:13:56;;;;;;;9.37;8.50;;;20.60;94.90;;;20.57;86.43;98070.09;4943479;29;20522;-70
2023/08/17 01:16:28;;;;;;;8.67;7.87;;;20.50;95.60;;;20.71;85.14;98070.31;4941941;29;20458;-70
2023/08/17 01:18:59;;;;;;;9.20;8.40;;;20.60;95.00;;;20.66;85.31;98078.56;4950987;29;20460;-71
2023/08/17 01:21:37;;;;;;;8.97;8.27;;;20.60;95.00;;;20.57;86.26;98085.72;4937886;28;20481;-69
2023/08/17 01:24:07;;;;;;;9.00;8.20;;;20.60;95.30;;;20.45;87.24;98073.13;4939422;29;20449;-70
2023/08/17 01:26:34;;;;;;;9.23;8.43;;;20.40;96.10;;;20.32;87.53;98063.59;4938610;28;20808;-70
2023/08/17 01:29:01;;;;;;;9.73;8.93;;;20.30;96.10;;;20.41;87.36;98071.25;4953446;29;20455;-70
2023/08/17 01:31:33;;;;;;;9.53;8.73;;;20.30;96.60;;;20.47;86.61;98064.63;4936878;28;20469;-70
2023/08/17 01:34:08;;;;;;;9.70;8.90;;;20.40;96.00;;;20.37;86.96;98052.59;4941151;29;21011;-70
2023/08/17 01:36:40;;;;;;;8.77;8.00;;;20.30;96.10;;;20.36;87.79;98055.63;4933349;29;21015;-70
2023/08/17 01:39:11;;;;;;;9.10;8.20;;;20.20;96.40;;;20.34;87.58;98044.13;4948461;28;20450;-70
2023/08/17 01:41:39;;;;;;;9.33;8.53;;;20.30;96.50;;;20.33;87.81;98048.75;4935047;29;20493;-69
2023/08/17 01:44:07;;;;;;;9.07;8.37;;;20.20;96.70;;;20.35;87.62;98040.25;4947653;28;20476;-70
2023/08/17 01:46:35;;;;;;;8.80;8.10;;;20.30;96.50;;;20.39;87.01;98053.13;4944757;28;20463;-71
2023/08/17 01:49:02;;;;;;;8.83;8.13;;;20.30;96.00;;;20.43;86.53;98049.84;4941391;29;20539;-69
2023/08/17 01:51:29;;;;;;;8.70;8.10;;;20.40;95.70;;;20.34;86.60;98053.16;4931284;29;20979;-69
2023/08/17 01:53:57;;;;;;;8.00;7.40;;;20.40;95.50;;;20.46;86.13;98047.34;4962462;28;20957;-69
2023/08/17 01:56:25;;;;;;;9.13;8.43;;;20.30;95.80;;;20.62;85.23;98048.13;4940919;29;20457;-70
2023/08/17 01:58:52;;;;;;;9.37;8.57;;;20.50;95.20;;;20.61;84.76;98040.16;4949122;29;20464;-69
2023/08/17 02:01:20;;;;;;;9.10;8.30;;;20.50;95.20;;;20.56;85.13;98043.75;4953247;28;21067;-70
2023/08/17 02:03:47;;;;;;;8.57;7.97;;;20.50;95.10;;;20.60;84.92;98036.59;4949344;28;20525;-69
2023/08/17 02:06:14;;;;;;;8.73;8.00;;;20.40;95.50;;;20.60;84.98;98035.75;4933326;29;20478;-70
2023/08/17 02:08:42;;;;;;;9.00;8.20;;;20.40;95.30;;;20.79;83.80;98028.56;4933340;29;20464;-71
2023/08/17 02:11:10;;;;;;;8.67;7.97;;;20.50;95.30;;;20.83;83.24;98023.34;4944414;29;20465;-71
2023/08/17 02:13:39;;;;;;;8.57;7.77;;;20.60;94.70;;;20.79;83.80;98012.09;4938298;29;20498;-69
2023/08/17 02:16:06;;;;;;;8.87;8.10;;;20.60;94.90;;;20.70;84.25;98011.03;4949491;29;20505;-71
2023/08/17 02:18:34;;;;;;;9.73;8.83;;;20.50;94.90;;;20.85;83.71;98010.16;4935009;28;20454;-69
2023/08/17 02:21:01;;;;;;;9.80;8.63;;;20.60;95.00;;;20.75;84.24;98008.25;4932544;29;20456;-71
2023/08/17 02:23:28;;;;;;;7.80;7.20;;;20.70;94.70;;;20.81;84.25;98017.31;4960808;28;20481;-71
2023/08/17 02:25:56;;;;;;;8.67;7.73;;;20.60;95.00;;;20.83;nan;98017.84;4947526;28;20464;-70
2023/08/17 02:28:23;;;;;;;9.30;8.60;;;20.70;94.80;;;20.83;84.00;98009.59;4945280;29;20798;-70
2023/08/17 02:30:56;;;;;;;9.27;8.27;;;20.70;94.60;;;20.94;82.88;98000.22;4942131;29;20459;-69
2023/08/17 02:33:24;;;;;;;13.43;8.20;;;20.80;94.00;;;20.88;83.27;97998.63;4950623;29;20456;-71
2023/08/17 02:35:51;;;;;;;9.40;8.70;;;20.80;94.20;;;20.98;82.62;98000.47;4935810;29;21001;-72
2023/08/17 02:38:19;;;;;;;8.53;7.70;;;20.90;94.00;;;20.91;83.00;97991.72;4943010;29;20513;-71
2023/08/17 02:40:46;;;;;;;8.80;8.20;;;20.90;94.00;;;21.02;82.66;97987.81;4953150;29;20503;-69
2023/08/17 02:43:14;;;;;;;8.20;7.40;;;20.90;94.00;;;20.98;82.46;97991.41;4938221;29;20472;-69
2023/08/17 02:45:41;;;;;;;8.70;7.90;;;20.90;93.70;;;21.02;82.19;97992.50;4950945;29;20460;-70
2023/08/17 02:48:09;;;;;;;10.20;8.27;;;20.90;93.60;;;20.97;82.44;97996.09;4938232;28;20460;-70
2023/08/17 02:50:36;;;;;;;8.63;7.83;;;20.90;93.70;;;20.95;82.71;97992.81;4938232;29;20896;-69
2023/08/17 02:53:04;;;;;;;8.43;7.70;;;20.90;93.80;;;20.86;82.86;97995.34;4956313;28;20457;-70
2023/08/17 02:55:31;;;;;;;8.80;8.10;;;20.90;93.70;;;20.78;83.64;97982.16;4966529;28;20467;-70
2023/08/17 02:57:58;;;;;;;9.50;8.70;;;20.80;93.80;;;20.70;84.18;97990.97;4944420;28;20515;-71
2023/08/17 03:00:25;;;;;;;9.20;8.17;;;20.80;94.10;;;20.70;84.17;97991.81;4944266;29;20466;-70
2023/08/17 03:02:52;;;;;;;9.40;8.47;;;20.70;94.40;;;20.83;83.58;97995.88;4937149;29;21039;-70
2023/08/17 03:05:21;;;;;;;9.43;8.63;;;20.70;94.30;;;20.76;83.41;98000.84;4964337;28;20486;-69
2023/08/17 03:07:48;;;;;;;10.10;8.83;;;20.70;94.20;;;20.69;83.97;97994.81;4945223;29;20454;-71
2023/08/17 03:10:16;;;;;;;9.30;8.40;;;20.70;94.20;;;20.66;84.35;98005.28;4940207;29;20950;-72
2023/08/17 03:12:43;;;;;;;8.53;7.83;;;20.70;94.40;;;20.76;83.98;98006.34;4939093;29;20460;-71
2023/08/17 03:15:11;;;;;;;9.17;8.37;;;20.70;94.40;;;20.54;84.98;98004.78;4947267;28;20489;-70
2023/08/17 03:17:38;;;;;;;8.80;8.17;;;20.60;94.50;;;20.48;85.02;98000.44;4939097;28;20942;-70
2023/08/17 03:20:07;;;;;;;8.93;8.20;;;20.50;94.60;;;20.46;85.71;98008.13;4940195;29;20452;-70
2023/08/17 03:22:36;;;;;;;10.13;8.37;;;20.50;95.10;;;20.43;85.63;97997.72;4940849;28;20480;-70
2023/08/17 03:25:03;;;;;;;9.63;8.83;;;20.40;95.10;;;20.31;86.14;97998.00;4936457;29;20558;-70
2023/08/17 03:27:31;;;;;;;9.53;8.83;;;20.40;95.20;;;20.27;86.84;97988.72;4935989;29;20584;-70
2023/08/17 03:29:58;;;;;;;9.80;9.00;;;20.30;95.50;;;20.29;86.57;97994.72;4947904;29;20924;-69
2023/08/17 03:32:25;;;;;;;9.90;9.00;;;20.30;95.60;;;20.31;86.48;97985.13;4934993;29;20465;-69
2023/08/17 03:34:52;;;;;;;9.73;8.83;;;20.30;95.60;;;20.37;86.27;97991.41;4952421;28;20885;-70
2023/08/17 03:37:19;;;;;;;10.80;9.70;;;20.30;95.60;;;20.50;85.67;97992.72;4940709;28;20458;-69
2023/08/17 03:39:48;;;;;;;8.73;8.03;;;20.40;95.80;;;20.56;84.95;97997.13;4939222;29;20468;-71
2023/08/17 03:42:15;;;;;;;9.53;8.63;;;20.40;95.30;;;20.50;85.16;97995.47;4954192;28;20469;-71
2023/08/17 03:44:42;;;;;;;9.37;8.50;;;20.40;95.20;;;20.36;86.14;97992.53;4949689;29;20510;-70
2023/08/17 03:47:09;;;;;;;8.60;7.80;;;20.40;95.20;;;20.37;86.26;97992.22;4950418;28;20952;-70
2023/08/17 03:49:36;;;;;;;9.80;7.97;;;20.40;95.30;;;20.36;86.17;97998.00;4955854;28;20461;-71
2023/08/17 03:52:03;;;;;;;9.30;8.50;;;20.40;95.30;;;20.25;86.58;97986.25;4943227;29;20452;-70
2023/08/17 03:54:31;;;;;;;10.03;9.13;;;20.40;95.30;;;20.24;86.82;97985.44;4935445;29;20959;-70
2023/08/17 03:56:59;;;;;;;9.93;8.90;;;20.30;95.40;;;20.26;86.95;97987.91;4940004;29;20948;-70
2023/08/17 03:59:26;;;;;;;10.10;9.30;;;20.30;95.70;;;20.28;86.99;97987.59;4953153;29;20509;-70
2023/08/17 04:01:54;;;;;;;8.93;8.13;;;20.30;95.70;;;20.36;86.23;97993.34;4935584;28;21227;-70
2023/08/17 04:04:21;;;;;;;9.90;9.03;;;20.30;95.70;;;20.31;86.34;97996.09;4935230;29;20516;-71
2023/08/17 04:06:48;;;;;;;9.57;8.77;;;20.30;95.60;;;20.28;86.67;97998.56;4951992;28;20454;-71
2023/08/17 04:09:15;;;;;;;10.13;9.33;;;20.30;95.60;;;20.17;87.26;97993.16;4936343;29;20469;-71
2023/08/17 04:11:42;;;;;;;10.07;9.27;;;20.20;95.90;;;20.21;87.18;97996.13;4937311;29;20461;-71
2023/08/17 04:14:12;;;;;;;9.73;8.93;;;20.20;95.70;;;20.05;87.87;97998.91;4963001;28;20444;-70
2023/08/17 04:16:39;;;;;;;9.63;8.83;;;20.20;96.00;;;19.98;88.60;98005.78;4945909;28;20500;-70
2023/08/17 04:19:06;;;;;;;10.47;9.40;;;20.10;96.10;;;19.99;88.88;98015.66;4949462;28;20456;-70
2023/08/17 04:21:33;;;;;;;10.17;9.30;;;20.00;96.50;;;19.99;88.97;98021.97;4934129;29;20658;-70
2023/08/17 04:24:00;;;;;;;10.07;9.27;;;20.00;96.70;;;19.95;88.97;98013.47;4949633;28;20834;-71
2023/08/17 04:26:27;;;;;;;10.33;9.43;;;20.00;96.70;;;19.90;89.44;98005.25;4938503;28;20474;-70
2023/08/17 04:28:55;;;;;;;9.80;9.03;;;20.00;96.80;;;19.84;89.80;98002.78;4934424;29;20696;-70
2023/08/17 04:31:23;;;;;;;10.37;9.37;;;19.90;96.90;;;19.78;90.13;98002.78;4941441;29;20443;-70
2023/08/17 04:33:50;;;;;;;10.50;9.63;;;19.90;97.20;;;19.82;90.22;98005.78;4950041;29;20446;-70
2023/08/17 04:36:18;;;;;;;11.67;10.07;;;19.90;97.40;;;19.87;90.13;98013.19;4934306;29;20918;-68
2023/08/17 04:38:45;;;;;;;10.50;9.60;;;19.90;97.60;;;19.86;89.71;98017.84;4933169;28;20473;-68
2023/08/17 04:41:12;;;;;;;9.80;9.00;;;19.90;97.40;;;19.76;90.38;98015.94;4947975;29;20521;-70
2023/08/17 04:43:40;;;;;;;11.20;10.23;;;19.80;97.50;;;19.79;90.60;98011.84;4943253;29;20532;-69
2023/08/17 04:46:07;;;;;;;11.87;10.30;;;19.80;97.70;;;19.67;90.72;97995.69;4950123;28;20450;-68
2023/08/17 04:48:36;;;;;;;9.67;8.80;;;19.80;97.80;;;19.77;90.95;98005.81;4944264;29;20464;-69
2023/08/17 04:51:03;;;;;;;10.90;9.97;;;19.80;98.20;;;19.75;90.64;98016.22;4963021;28;20824;-69
2023/08/17 04:53:30;;;;;;;11.30;10.20;;;19.80;98.00;;;19.30;90.76;97937.34;4944767;29;20448;-69
2023/08/17 04:55:59;;;;;;;10.87;9.10;;;19.80;97.80;;;19.76;90.31;98007.72;4934667;29;20541;-69
2023/08/17 04:58:26;;;;;;;10.23;9.33;;;19.80;97.80;;;19.90;89.64;98007.97;4940711;29;20538;-71
2023/08/17 05:00:53;;;;;;;10.27;9.27;;;19.90;97.60;;;19.92;90.14;98015.94;4942436;28;21007;-69
2023/08/17 05:03:20;;;;;;;11.23;10.13;;;19.90;97.90;;;19.91;89.84;98011.53;4940005;29;20550;-69
2023/08/17 05:05:49;;;;;;;10.67;9.73;;;19.90;97.70;;;19.88;89.64;98004.69;4945085;28;20459;-71
2023/08/17 05:08:16;;;;;;;10.67;9.63;;;19.90;97.20;;;19.93;89.88;98012.09;4940104;29;20452;-70
2023/08/17 05:10:43;;;;;;;9.60;8.80;;;19.90;97.40;;;20.04;89.72;98008.25;4949453;28;20496;-70
2023/08/17 05:13:10;;;;;;;10.17;9.37;;;20.00;97.90;;;20.45;88.06;98015.50;4946248;29;20520;-70
2023/08/17 05:15:37;;;;;;;10.20;9.30;;;20.20;97.80;;;21.39;82.63;98013.09;4947124;29;20544;-70
2023/08/17 05:18:06;;;;;;;8.60;7.80;;;21.10;95.00;;;22.00;77.75;97999.13;4953390;28;20458;-70
2023/08/17 05:20:33;;;;;;;8.80;8.10;;;22.20;92.40;;;22.55;75.04;98025.47;4945640;28;20457;-70
2023/08/17 05:23:01;;;;;;;9.27;7.40;;;22.80;91.10;;;22.52;74.41;98021.41;4938941;29;20483;-69
2023/08/17 05:25:29;;;;;;;10.13;8.00;;;23.00;90.50;;;22.83;72.92;98021.00;4933841;29;20456;-69
2023/08/17 05:27:56;;;;;;;9.20;8.50;;;23.30;90.20;;;23.05;71.62;98027.84;4958580;28;20971;-70
2023/08/17 05:30:23;;;;;;;9.53;8.60;;;23.60;89.60;;;23.34;70.27;98016.69;4944320;29;20462;-69
2023/08/17 05:32:50;;;;;;;8.87;8.17;;;23.80;88.90;;;23.66;68.57;98011.50;4946447;28;20458;-70
2023/08/17 05:35:18;;;;;;;9.00;8.30;;;24.30;87.70;;;24.03;67.17;98004.22;4966811;28;20458;-69
2023/08/17 05:37:46;;;;;;;9.27;8.07;;;24.70;87.30;;;24.35;65.86;98017.47;4947848;29;20464;-70
2023/08/17 05:40:14;;;;;;;7.97;7.37;;;25.10;86.10;;;24.68;64.90;98026.41;4963092;28;21023;-69
2023/08/17 05:42:41;;;;;;;8.40;7.50;;;25.50;85.10;;;24.55;64.90;98028.06;4935281;29;20530;-70
2023/08/17 05:45:10;;;;;;;7.83;7.10;;;25.40;84.60;;;24.46;64.50;98024.38;4938005;29;20602;-71
2023/08/17 05:47:37;;;;;;;8.47;7.80;;;25.30;84.60;;;24.04;66.40;98024.38;4932032;29;20469;-72
2023/08/17 05:50:06;;;;;;;8.53;7.73;;;25.00;84.90;;;24.54;65.02;98018.16;4940308;29;20963;-69
2023/08/17 05:52:33;;;;;;;7.40;6.80;;;25.00;85.20;;;24.79;64.33;98018.75;4943119;29;20457;-70
2023/08/17 05:55:00;;;;;;;8.53;7.83;;;25.20;84.60;;;24.83;63.46;98022.56;4932916;29;20479;-70
2023/08/17 05:57:29;;;;;;;11.17;9.00;;;25.50;84.00;;;23.96;66.61;98034.13;4948217;28;20465;-70
2023/08/17 05:59:56;;;;;;;8.93;8.03;;;24.90;84.60;;;23.54;68.35;98035.94;4941762;28;20458;-69
2023/08/17 06:02:23;;;;;;;8.50;7.87;;;24.20;85.70;;;22.90;71.68;98035.22;4932400;29;20458;-70
2023/08/17 06:04:50;;;;;;;9.90;8.07;;;23.60;87.20;;;22.64;73.21;98041.03;4933048;29;20536;-69
2023/08/17 06:07:17;;;;;;;8.30;7.60;;;23.10;88.50;;;22.34;73.93;98040.25;4955891;28;20469;-70
2023/08/17 06:09:45;;;;;;;9.13;8.23;;;22.70;89.00;;;22.18;75.54;98033.28;4957300;28;20518;-70
2023/08/17 06:12:12;;;;;;;9.80;8.87;;;22.50;90.00;;;22.35;74.34;98039.16;4946998;28;21038;-70
2023/08/17 06:14:42;;;;;;;9.50;8.57;;;22.50;90.10;;;22.59;73.87;98040.28;4943435;29;20530;-72
2023/08/17 06:17:09;;;;;;;9.50;8.70;;;22.50;90.10;;;22.47;73.95;98043.44;4956758;28;20788;-69
2023/08/17 06:19:36;;;;;;;9.13;8.33;;;22.50;90.00;;;22.53;73.83;98045.06;4941187;29;20463;-71
2023/08/17 06:22:03;;;;;;;9.23;8.33;;;22.60;90.20;;;22.63;72.95;98039.41;4932206;29;20458;-71
2023/08/17 06:24:30;;;;;;;10.53;9.57;;;22.60;90.10;;;22.69;73.05;98036.59;4932982;29;20486;-69
2023/08/17 06:26:58;;;;;;;9.90;8.90;;;22.70;90.00;;;22.77;72.50;98033.19;4947737;28;20478;-69
2023/08/17 06:29:25;;;;;;;9.10;8.40;;;22.80;90.00;;;22.56;72.40;97983.91;4948084;28;20484;-69
2023/08/17 06:31:54;;;;;;;10.03;9.20;;;22.90;90.00;;;22.87;72.64;98032.22;4947860;28;20489;-69
2023/08/17 06:34:21;;;;;;;10.00;9.10;;;22.90;90.00;;;22.86;72.23;98020.41;4947605;28;20479;-70
2023/08/17 06:36:59;;;;;;;10.13;9.23;;;23.00;89.80;;;22.92;71.72;98013.69;4932293;29;20515;-69
2023/08/17 06:39:26;;;;;;;10.30;9.40;;;23.10;89.80;;;23.20;70.87;98030.38;4945220;29;20820;-70
2023/08/17 06:41:53;;;;;;;9.57;8.77;;;23.20;89.50;;;23.10;72.14;98033.28;4931884;29;20466;-71
2023/08/17 06:44:21;;;;;;;10.83;8.40;;;23.20;89.70;;;22.95;71.90;98034.31;4954101;28;20478;-70
2023/08/17 06:46:48;;;;;;;9.40;8.57;;;23.10;89.50;;;23.23;71.36;98034.47;4939027;29;20477;-71
2023/08/17 06:49:17;;;;;;;8.80;8.00;;;23.20;89.70;;;23.27;70.90;98029.19;4939364;28;20457;-68
2023/08/17 06:51:44;;;;;;;9.13;8.30;;;23.30;89.20;;;23.10;71.76;98036.03;4938545;29;20673;-69
2023/08/17 06:54:11;;;;;;;9.20;8.50;;;23.20;89.40;;;23.21;71.38;98032.00;4931972;29;20513;-67
2023/08/17 06:56:38;;;;;;;10.37;9.47;;;23.30;89.50;;;23.32;70.76;98027.19;4931383;29;20455;-69
2023/08/17 06:59:06;;;;;;;9.40;8.60;;;23.40;89.30;;;23.29;71.29;98027.78;4936701;29;20544;-69
2023/08/17 07:01:34;;;;;;;8.70;8.10;;;23.40;89.50;;;23.24;71.18;98035.28;4946790;29;20464;-70
2023/08/17 07:04:01;;;;;;;9.27;8.50;;;23.40;89.10;;;23.23;70.83;98033.66;4937762;29;20488;-69
2023/08/17 07:06:30;;;;;;;8.73;8.03;;;23.40;89.20;;;23.25;70.67;98031.41;4939304;29;20544;-72
2023/08/17 07:08:58;;;;;;;9.47;8.40;;;23.30;89.00;;;23.35;70.33;98034.03;4940315;29;20457;-70
2023/08/17 07:11:25;;;;;;;9.30;8.50;;;23.40;89.10;;;23.61;69.89;98033.66;4938966;29;20482;-71
2023/08/17 07:13:52;;;;;;;9.83;8.73;;;23.50;89.00;;;23.70;69.50;98051.13;4941068;29;20457;-69
2023/08/17 07:16:20;;;;;;;8.67;7.83;;;23.70;89.00;;;23.91;68.99;98031.47;4946265;29;20449;-69
2023/08/17 07:18:47;;;;;;;10.00;9.03;;;23.90;88.90;;;24.16;68.25;98043.19;4942509;28;20451;-69
2023/08/17 07:21:14;;;;;;;9.33;8.33;;;24.10;88.60;;;24.39;67.34;98040.56;4933955;29;20506;-70
2023/08/17 07:23:47;;;;;;;9.13;8.43;;;24.20;88.30;;;24.38;66.18;98038.91;4943487;29;20579;-70
2023/08/17 07:26:14;;;;;;;9.70;8.80;;;24.30;87.60;;;24.57;66.43;98039.63;4944494;29;20545;-70
2023/08/17 07:28:41;;;;;;;8.50;7.80;;;24.40;87.80;;;24.73;65.35;98044.84;4943499;29;20517;-70
2023/08/17 07:31:08;;;;;;;8.97;8.17;;;24.60;87.20;;;24.81;65.33;98049.66;4939472;29;20454;-70
2023/08/17 07:33:36;;;;;;;9.47;8.67;;;24.70;87.30;;;24.88;65.16;98055.59;4938135;29;20455;-69
2023/08/17 07:36:04;;;;;;;9.87;8.90;;;24.80;87.10;;;24.78;64.95;98055.78;4949851;29;20461;-69
2023/08/17 07:38:31;;;;;;;8.57;7.77;;;24.80;86.80;;;25.05;64.04;98048.59;4946941;29;20459;-70
2023/08/17 07:41:00;;;;;;;10.00;9.10;;;25.00;86.50;;;25.31;63.65;98054.34;4941652;29;20956;-69
2023/08/17 07:43:27;;;;;;;10.40;8.70;;;25.20;86.10;;;25.26;63.42;98050.91;4952124;28;20592;-69
2023/08/17 07:45:55;;;;;;;8.97;8.27;;;25.30;85.70;;;25.42;63.40;98049.41;4939109;29;20496;-70
2023/08/17 07:48:23;;;;;;;10.03;9.13;;;25.40;85.80;;;25.28;62.74;98052.22;4948738;28;20453;-70
2023/08/17 07:50:51;;;;;;;11.27;8.90;;;25.40;85.10;;;25.46;62.02;98055.94;4948904;29;20463;-72
2023/08/17 07:53:18;;;;;;;10.80;9.70;;;25.40;85.00;;;25.67;61.19;98049.94;4935438;29;20538;-69
2023/08/17 07:55:46;;;;;;;8.90;8.20;;;25.60;84.70;;;25.58;61.99;98043.53;4944407;29;20505;-69
2023/08/17 07:58:15;;;;;;;9.00;8.30;;;25.60;84.80;;;25.60;61.38;98055.09;4940098;29;20522;-69
2023/08/17 08:00:42;;;;;;;10.10;9.20;;;25.60;84.60;;;25.83;60.72;98044.00;4952348;28;20448;-71
2023/08/17 08:03:09;;;;;;;9.63;8.83;;;25.70;84.10;;;25.86;60.22;98046.97;4932498;29;20968;-69
2023/08/17 08:05:36;;;;;;;9.30;8.47;;;25.80;83.70;;;26.12;58.80;98042.72;4942769;29;20537;-70
2023/08/17 08:08:04;;;;;;;10.30;9.40;;;26.00;83.20;;;26.21;58.07;98040.84;4942972;28;20468;-70
2023/08/17 08:10:31;;;;;;;8.60;7.83;;;26.10;82.20;;;26.37;57.03;98037.66;4953682;28;20459;-71
2023/08/17 08:12:58;;;;;;;9.47;8.77;;;26.20;81.50;;;26.61;56.88;98041.94;4961866;28;20864;-71
2023/08/17 08:15:26;;;;;;;11.10;10.23;;;26.40;81.50;;;26.55;57.34;98039.34;4945128;28;20460;-70
2023/08/17 08:17:54;;;;;;;9.80;9.00;;;26.40;81.60;;;26.76;56.36;98044.28;4943888;28;20455;-71
2023/08/17 08:20:22;;;;;;;9.97;9.07;;;26.50;81.10;;;26.50;56.33;98042.25;4934815;29;20480;-70
2023/08/17 08:22:49;;;;;;;11.83;9.90;;;26.60;80.30;;;26.43;56.36;98042.72;4947285;29;20555;-71
2023/08/17 08:25:16;;;;;;;9.77;8.97;;;26.40;80.30;;;26.56;56.63;98035.44;4947699;28;20526;-71
2023/08/17 08:27:43;;;;;;;9.93;9.23;;;26.50;80.40;;;26.78;55.31;98039.25;4945549;29;20452;-70
2023/08/17 08:30:11;;;;;;;10.40;9.70;;;26.70;79.60;;;27.06;54.86;98036.22;4958913;28;20878;-69
2023/08/17 08:32:39;;;;;;;8.90;8.20;;;26.80;79.30;;;26.70;54.93;98040.88;4934516;29;20536;-71
2023/08/17 08:35:07;;;;;;;9.90;9.10;;;26.80;78.70;;;26.66;55.32;98042.63;4942556;29;20943;-70
2023/08/17 08:37:35;;;;;;;9.73;8.93;;;26.70;78.70;;;26.78;54.15;98025.41;4934246;29;20466;-70
2023/08/17 08:40:02;;;;;;;8.97;8.30;;;26.80;78.00;;;27.00;53.56;98032.81;4934293;29;20450;-69
2023/08/17 08:42:29;;;;;;;10.50;9.60;;;26.90;77.60;;;26.86;54.16;98021.84;4933527;29;20484;-71
2023/08/17 08:44:57;;;;;;;10.10;9.30;;;26.80;77.60;;;26.96;54.11;98025.44;4940738;29;20540;-72
2023/08/17 08:47:25;;;;;;;9.30;8.40;;;26.90;77.60;;;27.14;54.53;98021.53;4944957;29;20458;-70
2023/08/17 08:50:02;;;;;;;9.57;8.87;;;27.00;78.50;;;26.92;55.10;98025.28;4952705;28;20464;-71
2023/08/17 08:52:35;;;;;;;10.40;9.50;;;27.00;78.10;;;27.34;54.33;98024.00;4946462;29;20468;-71
2023/08/17 08:55:12;;;;;;;10.10;9.20;;;27.10;78.40;;;27.15;54.46;98019.59;4946451;29;20476;-69
2023/08/17 08:57:40;;;;;;;12.07;10.90;;;27.20;77.60;;;26.95;54.48;97979.47;4938594;28;20565;-70
2023/08/17 09:00:09;;;;;;;10.00;9.20;;;27.20;77.60;;;27.48;54.33;98024.66;4938936;29;20523;-70
2023/08/17 09:02:37;;;;;;;10.00;9.20;;;27.30;78.00;;;27.27;54.23;98025.28;4944944;28;20467;-72
2023/08/17 09:05:07;;;;;;;10.93;10.13;;;27.30;77.40;;;27.35;53.89;98031.97;4944168;29;20993;-70
2023/08/17 09:07:35;;;;;;;10.47;9.70;;;27.30;77.50;;;27.50;53.66;98024.31;4936084;28;20537;-70
2023/08/17 09:10:04;;;;;;;10.03;9.30;;;27.40;77.40;;;27.77;53.29;98020.41;4937325;29;20524;-69
2023/08/17 09:12:31;;;;;;;10.30;9.47;;;27.50;77.20;;;27.94;52.67;98019.53;4950972;28;20481;-69
2023/08/17 09:14:59;;;;;;;10.10;9.30;;;27.80;76.80;;;28.05;52.88;98013.63;4950640;28;20464;-69
2023/08/17 09:17:27;;;;;;;10.00;9.20;;;27.90;76.70;;;28.14;51.93;98015.22;4948571;29;20468;-69
2023/08/17 09:19:55;;;;;;;9.70;8.83;;;27.90;76.40;;;28.15;52.15;98018.81;4949831;29;20469;-71
2023/08/17 09:22:39;;;;;;;10.17;9.43;;;28.00;76.10;;;28.39;51.68;98017.44;4938633;29;20458;-71
2023/08/17 09:25:07;;;;;;;10.27;9.23;;;28.10;76.00;;;28.43;51.20;98012.81;4945399;29;20482;-70
2023/08/17 09:27:35;;;;;;;10.33;9.33;;;28.20;75.40;;;28.50;51.48;98018.69;4946253;28;20839;-70
2023/08/17 09:30:05;;;;;;;10.27;9.43;;;28.30;75.50;;;28.55;51.65;98020.47;4932445;29;20454;-70
2023/08/17 09:32:32;;;;;;;9.20;8.40;;;28.30;75.30;;;28.65;51.07;98008.16;4941548;28;20546;-71
2023/08/17 09:35:03;;;;;;;10.23;9.37;;;28.40;75.10;;;28.18;51.52;98015.41;4952006;29;20477;-71
2023/08/17 09:37:32;;;;;;;10.90;9.90;;;28.20;74.80;;;27.93;51.95;98008.75;4941786;28;20550;-69
2023/08/17 09:39:59;;;;;;;10.50;9.70;;;28.10;74.80;;;28.36;51.71;98009.75;4933601;29;20492;-70
2023/08/17 09:42:27;;;;;;;10.70;9.73;;;28.10;75.00;;;28.24;51.60;98000.16;4940597;29;20456;-71
2023/08/17 09:44:55;;;;;;;10.73;9.93;;;28.20;74.80;;;28.49;51.27;98005.13;4962687;28;20974;-69
2023/08/17 09:47:23;;;;;;;11.07;10.20;;;28.30;74.70;;;28.09;52.01;98009.84;4948174;28;21023;-69
2023/08/17 09:49:53;;;;;;;10.30;9.43;;;28.10;74.50;;;28.41;52.30;97998.47;4941383;29;20490;-71
2023/08/17 09:52:20;;;;;;;11.10;10.13;;;28.20;75.60;;;28.71;50.77;97998.44;4945790;29;20454;-70
2023/08/17 09:54:50;;;;;;;10.70;9.90;;;28.30;74.90;;;28.38;51.97;97991.63;4938275;29;20439;-71
2023/08/17 09:57:17;;;;;;;9.57;8.87;;;28.40;74.80;;;28.33;52.18;97993.78;4933359;29;20547;-70
2023/08/17 09:59:45;;;;;;;11.10;9.90;;;28.30;74.90;;;28.67;51.16;98000.28;4933378;29;20472;-69
2023/08/17 10:02:20;;;;;;;10.10;9.40;;;28.40;74.40;;;28.46;50.32;97928.84;4947294;28;20959;-70
2023/08/17 10:04:52;;;;;;;10.27;9.47;;;28.60;74.20;;;28.93;50.90;97991.78;4947900;28;20470;-70
2023/08/17 10:07:21;;;;;;;11.37;10.50;;;28.70;74.10;;;28.71;51.19;97995.66;4935344;29;20518;-70
2023/08/17 10:09:57;;;;;;;10.97;10.10;;;28.70;73.80;;;28.55;50.74;97987.13;4961584;28;20442;-69
2023/08/17 10:12:29;;;;;;;10.33;9.53;;;28.60;73.50;;;28.35;50.82;97994.25;4936389;29;20469;-72
2023/08/17 10:15:00;;;;;;;11.70;10.13;;;28.40;73.40;;;28.62;50.49;97989.38;4949907;29;20455;-71
2023/08/17 10:17:28;;;;;;;10.63;9.87;;;28.40;73.60;;;28.78;50.82;97989.59;4943977;28;20467;-70
2023/08/17 10:19:59;;;;;;;10.40;9.70;;;28.50;73.90;;;28.82;50.70;97994.16;4943531;29;20559;-70
2023/08/17 10:22:36;;;;;;;10.13;9.40;;;28.70;73.80;;;29.04;50.38;97992.22;4962829;28;20447;-70